createdAt,value
2022-12-08T00:00:54.928Z,88.13
2022-12-08T00:03:21.885Z,88.25
2022-12-08T00:05:49.798Z,88.01
2022-12-08T00:08:16.587Z,87.93
2022-12-08T00:10:50.797Z,87.96
2022-12-08T00:13:18.818Z,88.36
2022-12-08T00:15:45.387Z,88.27
2022-12-08T00:18:12.168Z,88.50
2022-12-08T00:20:38.859Z,88.79
2022-12-08T00:23:05.440Z,88.51
2022-12-08T00:25:35.712Z,88.88
2022-12-08T00:28:02.368Z,88.77
2022-12-08T00:30:30.502Z,89.18
2022-12-08T00:32:57.167Z,89.22
2022-12-08T00:35:23.857Z,89.12
2022-12-08T00:37:50.401Z,89.03
2022-12-08T00:40:17.188Z,89.03
2022-12-08T00:42:43.778Z,89.13
2022-12-08T00:45:11.574Z,89.51
2022-12-08T00:47:39.573Z,89.21
2022-12-08T00:50:07.427Z,89.01
2022-12-08T00:52:34.060Z,89.49
2022-12-08T00:55:00.699Z,89.38
2022-12-08T00:57:27.429Z,89.43
2022-12-08T00:59:54.007Z,89.13
2022-12-08T01:02:20.599Z,89.39
2022-12-08T01:04:48.536Z,89.55
2022-12-08T01:07:15.169Z,89.44
2022-12-08T01:09:41.873Z,89.28
2022-12-08T01:12:09.093Z,88.94
2022-12-08T01:14:37.026Z,88.91
2022-12-08T01:17:03.953Z,89.20
2022-12-08T01:19:30.673Z,89.03
2022-12-08T01:21:59.487Z,89.06
2022-12-08T01:24:26.920Z,89.17
2022-12-08T01:26:53.495Z,88.64
2022-12-08T01:29:20.093Z,88.97
2022-12-08T01:31:46.707Z,89.01
2022-12-08T01:34:13.304Z,88.90
2022-12-08T01:36:41.173Z,88.73
2022-12-08T01:39:14.043Z,88.82
2022-12-08T01:41:41.354Z,88.73
2022-12-08T01:44:45.349Z,88.82
2022-12-08T01:47:12.038Z,88.54
2022-12-08T01:49:38.664Z,88.48
2022-12-08T01:52:11.001Z,88.84
2022-12-08T01:54:44.239Z,88.68
2022-12-08T01:57:16.816Z,88.92
2022-12-08T01:59:49.824Z,88.88
2022-12-08T02:02:16.484Z,88.85
2022-12-08T02:04:43.115Z,88.69
2022-12-08T02:07:12.266Z,88.93
2022-12-08T02:09:41.754Z,88.62
2022-12-08T02:12:09.861Z,88.77
2022-12-08T02:14:36.647Z,89.02
2022-12-08T02:17:10.535Z,88.95
2022-12-08T02:20:04.377Z,88.92
2022-12-08T02:22:39.793Z,89.04
2022-12-08T02:25:15.939Z,88.82
2022-12-08T02:27:52.035Z,88.97
2022-12-08T02:30:22.063Z,88.89
2022-12-08T02:33:13.570Z,88.93
2022-12-08T02:35:47.666Z,89.31
2022-12-08T02:38:24.081Z,89.29
2022-12-08T02:41:00.935Z,88.89
2022-12-08T02:43:33.819Z,89.26
2022-12-08T02:46:03.482Z,89.40
2022-12-08T02:48:32.426Z,89.21
2022-12-08T02:51:01.029Z,89.26
2022-12-08T02:53:30.528Z,89.02
2022-12-08T02:56:03.265Z,89.39
2022-12-08T02:59:02.188Z,89.00
2022-12-08T03:02:02.045Z,89.32
2022-12-08T03:04:38.330Z,89.26
2022-12-08T03:07:11.363Z,88.79
2022-12-08T03:09:41.854Z,89.10
2022-12-08T03:12:16.954Z,88.96
2022-12-08T03:14:49.869Z,89.31
2022-12-08T03:17:19.327Z,89.36
2022-12-08T03:19:48.690Z,88.93
2022-12-08T03:22:21.898Z,89.32
2022-12-08T03:24:49.355Z,89.31
2022-12-08T03:27:19.785Z,89.13
2022-12-08T03:29:47.247Z,89.20
2022-12-08T03:32:21.985Z,89.30
2022-12-08T03:34:51.506Z,89.16
2022-12-08T03:37:20.759Z,89.26
2022-12-08T03:39:47.441Z,89.36
2022-12-08T03:42:14.051Z,89.37
2022-12-08T03:44:40.738Z,89.51
2022-12-08T03:47:07.312Z,89.07
2022-12-08T03:49:33.956Z,89.43
2022-12-08T03:52:00.654Z,89.34
2022-12-08T03:54:28.728Z,89.38
2022-12-08T03:56:55.382Z,89.31
2022-12-08T03:59:21.917Z,89.11
2022-12-08T04:01:48.677Z,89.77
2022-12-08T04:04:15.328Z,89.71
2022-12-08T04:06:41.935Z,89.76
2022-12-08T04:09:09.395Z,89.36
2022-12-08T04:11:37.415Z,89.75
2022-12-08T04:14:04.023Z,89.39
2022-12-08T04:16:30.793Z,89.64
2022-12-08T04:18:57.546Z,89.63
2022-12-08T04:21:24.170Z,90.05
2022-12-08T04:23:52.146Z,89.71
2022-12-08T04:26:21.525Z,89.55
2022-12-08T04:28:49.523Z,89.78
2022-12-08T04:31:16.153Z,89.81
2022-12-08T04:33:42.778Z,89.41
2022-12-08T04:36:09.767Z,89.77
2022-12-08T04:38:36.402Z,89.58
2022-12-08T04:41:03.215Z,90.09
2022-12-08T04:43:29.833Z,89.71
2022-12-08T04:45:57.831Z,90.36
2022-12-08T04:48:24.497Z,90.50
2022-12-08T04:50:51.104Z,90.22
2022-12-08T04:53:17.789Z,90.67
2022-12-08T04:55:44.940Z,90.91
2022-12-08T04:58:12.705Z,91.01
2022-12-08T05:00:39.298Z,90.76
2022-12-08T05:03:07.404Z,90.58
2022-12-08T05:05:34.022Z,90.61
2022-12-08T05:08:00.691Z,90.94
2022-12-08T05:10:27.539Z,90.72
2022-12-08T05:12:54.083Z,90.47
2022-12-08T05:15:20.688Z,90.46
2022-12-08T05:17:47.246Z,90.52
2022-12-08T05:20:15.389Z,90.74
2022-12-08T05:22:41.983Z,90.44
2022-12-08T05:25:09.289Z,90.59
2022-12-08T05:27:36.460Z,90.55
2022-12-08T05:30:03.752Z,90.57
2022-12-08T05:32:30.593Z,90.60
2022-12-08T05:34:57.129Z,90.25
2022-12-08T05:37:25.103Z,90.46
2022-12-08T05:39:51.655Z,90.21
2022-12-08T05:42:23.173Z,90.70
2022-12-08T05:44:51.313Z,90.43
2022-12-08T05:47:17.894Z,90.17
2022-12-08T05:49:44.488Z,90.33
2022-12-08T05:52:11.145Z,90.27
2022-12-08T05:54:39.072Z,90.33
2022-12-08T05:57:05.610Z,89.92
2022-12-08T05:59:32.353Z,89.95
2022-12-08T06:01:59.128Z,89.91
2022-12-08T06:04:25.830Z,89.95
2022-12-08T06:06:52.396Z,90.19
2022-12-08T06:09:18.958Z,89.97
2022-12-08T06:11:46.865Z,89.85
2022-12-08T06:14:13.745Z,89.62
2022-12-08T06:16:40.414Z,89.60
2022-12-08T06:19:07.057Z,90.03
2022-12-08T06:21:33.843Z,89.69
2022-12-08T06:24:00.432Z,89.54
2022-12-08T06:26:27.061Z,89.87
2022-12-08T06:28:55.044Z,89.87
2022-12-08T06:31:23.541Z,90.29
2022-12-08T06:33:50.931Z,90.41
2022-12-08T06:36:19.776Z,90.47
2022-12-08T06:38:46.705Z,90.33
2022-12-08T06:41:13.678Z,90.22
2022-12-08T06:43:40.275Z,90.54
2022-12-08T06:46:10.776Z,90.70
2022-12-08T06:48:37.423Z,90.72
2022-12-08T06:51:08.833Z,91.04
2022-12-08T06:53:35.395Z,90.71
2022-12-08T06:56:02.103Z,90.85
2022-12-08T06:58:28.855Z,91.05
2022-12-08T07:00:55.550Z,91.22
2022-12-08T07:03:23.614Z,91.12
2022-12-08T07:05:50.210Z,90.81
2022-12-08T07:08:16.898Z,91.19
2022-12-08T07:10:43.513Z,91.17
2022-12-08T07:13:10.117Z,90.88
2022-12-08T07:15:36.797Z,90.93
2022-12-08T07:18:03.613Z,91.23
2022-12-08T07:20:31.577Z,91.19
2022-12-08T07:22:58.372Z,90.86
2022-12-08T07:25:24.951Z,90.78
2022-12-08T07:27:51.600Z,91.10
2022-12-08T07:30:18.657Z,90.85
2022-12-08T07:32:45.794Z,90.71
2022-12-08T07:35:12.456Z,90.96
2022-12-08T07:37:40.441Z,90.54
2022-12-08T07:40:09.246Z,91.01
2022-12-08T07:42:35.995Z,90.87
2022-12-08T07:45:02.611Z,90.92
2022-12-08T07:47:29.203Z,90.76
2022-12-08T07:49:55.808Z,90.90
2022-12-08T07:52:22.421Z,91.13
2022-12-08T07:54:50.422Z,90.76
2022-12-08T07:57:17.091Z,90.94
2022-12-08T07:59:43.726Z,90.99
2022-12-08T08:02:25.734Z,90.98
2022-12-08T08:04:53.127Z,91.02
2022-12-08T08:07:19.820Z,90.79
2022-12-08T08:09:46.409Z,91.15
2022-12-08T08:12:30.674Z,91.12
2022-12-08T08:14:58.523Z,91.05
2022-12-08T08:17:25.311Z,91.21
2022-12-08T08:19:51.955Z,91.11
2022-12-08T08:22:18.555Z,91.24
2022-12-08T08:24:45.438Z,91.23
2022-12-08T08:27:13.677Z,91.13
2022-12-08T08:29:40.224Z,91.20
2022-12-08T08:32:06.812Z,91.04
2022-12-08T08:34:33.455Z,91.29
2022-12-08T08:37:00.285Z,91.01
2022-12-08T08:39:27.156Z,91.17
2022-12-08T08:41:53.855Z,90.71
2022-12-08T08:44:21.802Z,91.07
2022-12-08T08:46:48.403Z,91.23
2022-12-08T08:49:15.066Z,90.83
2022-12-08T08:51:41.735Z,91.21
2022-12-08T08:54:08.324Z,90.85
2022-12-08T08:56:35.031Z,90.87
2022-12-08T08:59:01.705Z,90.53
2022-12-08T09:01:30.241Z,90.13
2022-12-08T09:03:57.058Z,89.87
2022-12-08T09:06:24.715Z,89.89
2022-12-08T09:08:51.939Z,89.91
2022-12-08T09:11:18.800Z,89.83
2022-12-08T09:13:47.861Z,89.77
2022-12-08T09:16:14.496Z,89.66
2022-12-08T09:18:42.498Z,89.77
2022-12-08T09:21:11.100Z,89.63
2022-12-08T09:23:37.756Z,89.54
2022-12-08T09:26:05.233Z,89.16
2022-12-08T09:28:31.813Z,89.42
2022-12-08T09:30:58.469Z,89.24
2022-12-08T09:33:25.174Z,89.29
2022-12-08T09:35:53.240Z,89.01
2022-12-08T09:38:19.876Z,89.16
2022-12-08T09:40:50.489Z,88.51
2022-12-08T09:43:31.428Z,88.48
2022-12-08T09:45:59.337Z,88.47
2022-12-08T09:48:31.791Z,88.72
2022-12-08T09:50:59.872Z,88.76
2022-12-08T09:53:35.902Z,88.71
2022-12-08T09:56:08.539Z,88.61
2022-12-08T09:58:48.069Z,88.64
2022-12-08T10:01:15.542Z,88.93
2022-12-08T10:03:43.036Z,89.13
2022-12-08T10:06:19.957Z,89.23
2022-12-08T10:08:56.110Z,89.36
2022-12-08T10:11:29.225Z,89.06
2022-12-08T10:14:03.159Z,89.22
2022-12-08T10:16:34.718Z,88.87
2022-12-08T10:19:13.345Z,88.98
2022-12-08T10:21:41.479Z,88.71
2022-12-08T10:24:15.459Z,88.66
2022-12-08T10:26:42.844Z,88.59
2022-12-08T10:29:13.089Z,88.76
2022-12-08T10:31:39.903Z,88.61
2022-12-08T10:34:17.363Z,88.48
2022-12-08T10:36:53.027Z,88.42
2022-12-08T10:39:34.702Z,88.54
2022-12-08T10:42:06.278Z,88.50
2022-12-08T10:44:33.111Z,88.78
2022-12-08T10:46:59.957Z,88.28
2022-12-08T10:49:31.761Z,88.29
2022-12-08T10:51:59.923Z,88.57
2022-12-08T10:54:29.226Z,88.63
2022-12-08T10:56:57.044Z,88.76
2022-12-08T10:59:24.541Z,88.38
2022-12-08T11:01:52.928Z,88.56
2022-12-08T11:04:21.721Z,88.66
2022-12-08T11:06:50.036Z,88.55
2022-12-08T11:09:32.419Z,88.05
2022-12-08T11:12:00.853Z,87.64
2022-12-08T11:14:29.935Z,87.85
2022-12-08T11:17:04.739Z,88.00
2022-12-08T11:19:31.538Z,88.25
2022-12-08T11:21:58.248Z,88.33
2022-12-08T11:24:32.303Z,89.10
2022-12-08T11:27:02.476Z,89.16
2022-12-08T11:29:32.663Z,89.43
2022-12-08T11:32:02.736Z,89.36
2022-12-08T11:34:35.413Z,89.17
2022-12-08T11:37:04.983Z,89.30
2022-12-08T11:39:36.343Z,89.22
2022-12-08T11:42:05.790Z,89.08
2022-12-08T11:44:38.776Z,88.84
2022-12-08T11:47:10.581Z,89.02
2022-12-08T11:49:39.178Z,88.74
2022-12-08T11:52:17.384Z,88.73
2022-12-08T11:54:52.106Z,88.94
2022-12-08T11:57:23.246Z,88.91
2022-12-08T11:59:52.014Z,89.17
2022-12-08T12:02:22.038Z,89.38
2022-12-08T12:04:54.432Z,89.19
2022-12-08T12:07:53.041Z,89.24
2022-12-08T12:10:39.659Z,89.36
2022-12-08T12:13:19.374Z,89.07
2022-12-08T12:16:19.535Z,89.42
2022-12-08T12:18:50.927Z,88.88
2022-12-08T12:21:22.320Z,88.62
2022-12-08T12:23:54.255Z,88.68
2022-12-08T12:26:24.781Z,88.89
2022-12-08T12:28:55.830Z,88.80
2022-12-08T12:31:26.033Z,88.94
2022-12-08T12:33:57.142Z,89.15
2022-12-08T12:36:24.102Z,89.19
2022-12-08T12:38:55.331Z,89.14
2022-12-08T12:41:28.014Z,89.27
2022-12-08T12:44:20.844Z,89.07
2022-12-08T12:46:57.205Z,88.91
2022-12-08T12:50:05.535Z,89.12
2022-12-08T12:52:53.429Z,88.75
2022-12-08T12:55:29.741Z,88.20
2022-12-08T12:58:01.654Z,88.27
2022-12-08T13:00:28.336Z,87.78
2022-12-08T13:02:56.498Z,88.17
2022-12-08T13:05:26.213Z,88.21
2022-12-08T13:07:56.146Z,88.55
2022-12-08T13:10:25.508Z,88.33
2022-12-08T13:13:15.544Z,88.01
2022-12-08T13:15:49.690Z,88.10
2022-12-08T13:18:20.941Z,88.47
2022-12-08T13:20:51.553Z,88.33
2022-12-08T13:23:44.529Z,88.09
2022-12-08T13:26:16.538Z,88.28
2022-12-08T13:29:16.711Z,88.19
2022-12-08T13:31:50.052Z,87.87
2022-12-08T13:34:21.880Z,87.95
2022-12-08T13:36:57.232Z,87.67
2022-12-08T13:39:28.967Z,87.48
2022-12-08T13:42:02.051Z,87.65
2022-12-08T13:45:18.682Z,87.52
2022-12-08T13:47:34.673Z,87.46
2022-12-08T13:58:37.263Z,87.29
2022-12-08T14:01:10.739Z,87.34
2022-12-08T14:03:58.302Z,87.12
2022-12-08T14:06:36.547Z,86.91
2022-12-08T14:09:10.852Z,87.37
2022-12-08T14:11:40.914Z,87.65
2022-12-08T14:14:14.300Z,87.22
2022-12-08T14:16:49.118Z,86.99
2022-12-08T14:19:19.304Z,87.27
2022-12-08T14:21:54.437Z,87.31
2022-12-08T14:24:22.682Z,87.06
2022-12-08T14:26:52.777Z,87.33
2022-12-08T14:29:35.970Z,87.22
2022-12-08T14:32:04.529Z,87.12
2022-12-08T14:34:35.105Z,87.25
2022-12-08T14:37:01.893Z,87.04
2022-12-08T14:39:28.654Z,87.31
2022-12-08T14:42:00.085Z,87.23
2022-12-08T14:44:30.952Z,87.08
2022-12-08T14:47:07.357Z,87.21
2022-12-08T14:49:35.974Z,87.11
2022-12-08T14:52:08.583Z,87.47
2022-12-08T14:54:35.822Z,87.19
2022-12-08T14:57:03.327Z,86.91
2022-12-08T14:59:32.852Z,86.94
2022-12-08T15:02:20.927Z,86.57
2022-12-08T15:04:50.507Z,86.71
2022-12-08T15:07:19.499Z,86.45
2022-12-08T15:09:48.756Z,86.60
2022-12-08T15:12:26.815Z,86.59
2022-12-08T15:14:56.594Z,86.46
2022-12-08T15:17:34.753Z,86.13
2022-12-08T15:20:03.383Z,86.25
2022-12-08T15:22:30.781Z,86.42
2022-12-08T15:24:57.979Z,86.36
2022-12-08T15:27:25.594Z,86.21
2022-12-08T15:29:53.012Z,86.19
2022-12-08T15:32:23.191Z,86.03
2022-12-08T15:34:51.409Z,86.00
2022-12-08T15:37:22.104Z,86.20
2022-12-08T15:39:49.236Z,86.10
2022-12-08T15:42:16.054Z,86.14
2022-12-08T15:44:43.257Z,85.88
2022-12-08T15:47:16.208Z,86.15
2022-12-08T15:49:43.042Z,86.34
2022-12-08T15:52:15.913Z,86.08
2022-12-08T15:54:42.690Z,86.32
2022-12-08T15:57:29.987Z,85.93
2022-12-08T16:00:36.415Z,85.54
2022-12-08T16:03:42.265Z,85.82
2022-12-08T16:06:16.547Z,85.87
2022-12-08T16:08:49.465Z,85.77
2022-12-08T16:11:56.811Z,85.74
2022-12-08T16:14:48.793Z,85.85
2022-12-08T16:16:56.384Z,85.80
2022-12-08T16:19:23.102Z,85.68
2022-12-08T16:22:30.297Z,85.89
2022-12-08T16:24:37.875Z,86.27
2022-12-08T16:29:51.568Z,86.18
2022-12-08T16:32:18.400Z,86.27
2022-12-08T16:34:45.283Z,85.97
2022-12-08T16:37:15.142Z,86.09
2022-12-08T16:39:45.917Z,85.80
2022-12-08T16:42:14.354Z,85.97
2022-12-08T16:44:41.600Z,86.03
2022-12-08T16:47:09.149Z,85.66
2022-12-08T16:49:37.054Z,85.63
2022-12-08T16:52:04.186Z,86.03
2022-12-08T16:54:31.178Z,85.92
2022-12-08T16:57:01.043Z,85.96
2022-12-08T16:59:27.721Z,86.09
2022-12-08T17:01:54.439Z,85.82
2022-12-08T17:04:36.693Z,85.58
2022-12-08T17:07:03.403Z,86.12
2022-12-08T17:09:31.274Z,85.93
2022-12-08T17:12:03.776Z,85.88
2022-12-08T17:14:33.478Z,85.92
2022-12-08T17:17:00.260Z,85.97
2022-12-08T17:19:27.047Z,86.42
2022-12-08T17:21:53.717Z,86.25
2022-12-08T17:24:22.272Z,86.61
2022-12-08T17:26:49.252Z,86.44
2022-12-08T17:29:17.353Z,86.62
2022-12-08T17:31:44.112Z,86.69
2022-12-08T17:34:11.144Z,86.57
2022-12-08T17:36:38.072Z,86.88
2022-12-08T17:39:05.697Z,86.84
2022-12-08T17:41:32.800Z,86.51
2022-12-08T17:43:59.527Z,86.57
2022-12-08T17:46:27.847Z,86.41
2022-12-08T17:48:54.546Z,86.57
2022-12-08T17:51:21.243Z,86.12
2022-12-08T17:53:48.098Z,86.52
2022-12-08T17:56:18.294Z,86.82
2022-12-08T17:58:48.542Z,86.57
2022-12-08T18:01:17.995Z,87.05
2022-12-08T18:03:46.064Z,86.74
2022-12-08T18:06:12.878Z,86.59
2022-12-08T18:08:40.230Z,86.63
2022-12-08T18:11:12.054Z,86.46
2022-12-08T18:13:38.881Z,86.46
2022-12-08T18:16:05.798Z,86.66
2022-12-08T18:18:32.576Z,86.21
2022-12-08T18:21:00.732Z,86.22
2022-12-08T18:23:27.454Z,86.24
2022-12-08T18:25:54.306Z,85.72
2022-12-08T18:28:21.063Z,85.92
2022-12-08T18:30:47.839Z,85.74
2022-12-08T18:33:14.546Z,85.54
2022-12-08T18:35:41.283Z,86.13
2022-12-08T18:38:09.411Z,86.00
2022-12-08T18:40:36.545Z,85.94
2022-12-08T18:43:03.248Z,85.79
2022-12-08T18:45:29.938Z,85.91
2022-12-08T18:47:56.607Z,86.26
2022-12-08T18:50:23.369Z,86.40
2022-12-08T18:52:50.068Z,86.70
2022-12-08T18:55:18.362Z,86.44
2022-12-08T18:57:45.138Z,86.49
2022-12-08T19:00:14.662Z,87.12
2022-12-08T19:02:42.117Z,86.94
2022-12-08T19:05:10.850Z,87.25
2022-12-08T19:07:38.252Z,86.58
2022-12-08T19:10:06.931Z,87.01
2022-12-08T19:12:35.249Z,86.92
2022-12-08T19:15:01.982Z,86.40
2022-12-08T19:17:28.626Z,86.16
2022-12-08T19:19:55.359Z,86.39
2022-12-08T19:22:22.011Z,85.82
2022-12-08T19:24:48.660Z,85.86
2022-12-08T19:27:15.383Z,86.16
2022-12-08T19:29:43.480Z,86.03
2022-12-08T19:32:10.148Z,85.79
2022-12-08T19:34:36.773Z,85.52
2022-12-08T19:37:03.525Z,85.49
2022-12-08T19:39:30.370Z,85.64
2022-12-08T19:41:57.114Z,85.52
2022-12-08T19:44:26.139Z,85.25
2022-12-08T19:46:54.400Z,85.25
2022-12-08T19:49:21.186Z,85.50
2022-12-08T19:51:47.828Z,85.37
2022-12-08T19:54:14.562Z,85.55
2022-12-08T19:56:41.183Z,85.62
2022-12-08T19:59:07.972Z,85.85
2022-12-08T20:01:34.721Z,85.46
2022-12-08T20:04:02.924Z,85.29
2022-12-08T20:06:29.586Z,85.83
2022-12-08T20:08:56.273Z,85.92
2022-12-08T20:11:23.038Z,85.12
2022-12-08T20:13:49.725Z,85.84
2022-12-08T20:16:16.740Z,86.00
2022-12-08T20:18:43.794Z,85.91
2022-12-08T20:21:12.340Z,85.92
2022-12-08T20:23:39.048Z,85.51
2022-12-08T20:26:06.498Z,85.45
2022-12-08T20:28:34.487Z,85.18
2022-12-08T20:31:01.490Z,85.26
2022-12-08T20:33:28.320Z,85.19
2022-12-08T20:35:59.214Z,85.37
2022-12-08T20:38:27.777Z,85.23
2022-12-08T20:40:54.485Z,85.23
2022-12-08T20:43:21.602Z,85.50
2022-12-08T20:45:48.315Z,85.43
2022-12-08T20:48:14.977Z,85.03
2022-12-08T20:50:42.046Z,85.22
2022-12-08T20:53:09.240Z,85.77
2022-12-08T20:55:40.605Z,85.52
2022-12-08T20:58:07.302Z,85.56
2022-12-08T21:00:34.146Z,85.18
2022-12-08T21:03:01.263Z,84.88
2022-12-08T21:05:28.399Z,84.70
2022-12-08T21:07:55.286Z,84.55
2022-12-08T21:10:22.192Z,84.57
2022-12-08T21:12:50.367Z,84.84
2022-12-08T21:15:17.325Z,85.23
2022-12-08T21:17:44.187Z,85.16
2022-12-08T21:20:11.952Z,85.12
2022-12-08T21:22:38.856Z,85.57
2022-12-08T21:25:06.488Z,85.42
2022-12-08T21:27:33.707Z,85.66
2022-12-08T21:30:02.071Z,85.18
2022-12-08T21:32:30.602Z,85.30
2022-12-08T21:34:57.676Z,85.03
2022-12-08T21:37:24.915Z,85.09
2022-12-08T21:39:51.863Z,85.31
2022-12-08T21:42:21.473Z,85.73
2022-12-08T21:44:49.587Z,85.33
2022-12-08T21:47:17.787Z,85.11
2022-12-08T21:49:44.560Z,85.22
2022-12-08T21:52:11.616Z,85.17
2022-12-08T21:54:38.441Z,84.96
2022-12-08T21:57:05.251Z,85.57
2022-12-08T21:59:32.188Z,85.55
2022-12-08T22:01:58.999Z,84.92
2022-12-08T22:04:27.679Z,84.92
2022-12-08T22:06:54.485Z,84.97
2022-12-08T22:09:21.574Z,85.04
2022-12-08T22:11:48.611Z,84.65
2022-12-08T22:14:15.573Z,84.88
2022-12-08T22:16:42.830Z,85.31
2022-12-08T22:19:10.182Z,84.87
2022-12-08T22:21:38.491Z,85.24
2022-12-08T22:24:06.173Z,85.63
2022-12-08T22:26:33.533Z,85.45
2022-12-08T22:29:00.616Z,84.83
2022-12-08T22:31:28.415Z,85.21
2022-12-08T22:33:55.295Z,84.94
2022-12-08T22:36:23.867Z,84.90
2022-12-08T22:38:53.404Z,85.02
2022-12-08T22:41:21.179Z,84.96
2022-12-08T22:43:48.660Z,85.04
2022-12-08T22:46:17.301Z,84.99
2022-12-08T22:48:44.504Z,84.94
2022-12-08T22:51:11.396Z,85.08
2022-12-08T22:53:38.322Z,84.87
2022-12-08T22:56:08.184Z,84.51
2022-12-08T22:58:34.908Z,84.93
2022-12-08T23:01:01.740Z,84.21
2022-12-08T23:03:28.776Z,84.37
2022-12-08T23:05:55.613Z,84.11
2022-12-08T23:08:22.487Z,84.20
2022-12-08T23:10:51.443Z,84.69
2022-12-08T23:13:20.788Z,84.64
2022-12-08T23:15:47.773Z,84.91
2022-12-08T23:18:17.476Z,84.64
2022-12-08T23:20:44.380Z,84.83
2022-12-08T23:23:11.161Z,84.72
2022-12-08T23:25:40.430Z,84.17
2022-12-08T23:28:07.862Z,85.01
2022-12-08T23:30:36.511Z,85.23
2022-12-08T23:33:03.664Z,84.93
2022-12-08T23:35:30.423Z,84.90
2022-12-08T23:37:57.156Z,84.56
2022-12-08T23:40:24.188Z,84.25
2022-12-08T23:42:50.854Z,84.45
2022-12-08T23:45:17.750Z,85.06
2022-12-08T23:47:46.047Z,84.80
2022-12-08T23:50:13.149Z,84.94
2022-12-08T23:52:40.223Z,85.30
2022-12-08T23:55:08.350Z,84.78
2022-12-08T23:57:35.667Z,84.63
